Terminal Aerodrome Forecast
Issued by NWS Sterling, VA

Home | Current Version | Previous Version | Text Only | Print | Product List | Glossary On
Versions: 1 2 3 4 5 6 7 8 9 10 11 12 13 14
000
FTUS41 KLWX 191700 RRA
TAFMRB
TAF
KMRB 191743Z 1918/2018 04012KT P6SM BKN250
     FM192200 04006KT P6SM SCT250
     FM201100 01004KT P6SM FEW250
     FM201400 07007KT P6SM FEW250=

USA.gov is the U.S. government's official web portal to all federal, state and local government web resources and services.